createdAt,value
2023-01-09T00:02:14.109Z,1.67
2023-01-09T00:04:42.004Z,1.50
2023-01-09T00:07:09.451Z,1.47
2023-01-09T00:09:36.911Z,1.70
2023-01-09T00:12:04.681Z,1.47
2023-01-09T00:14:32.146Z,1.60
2023-01-09T00:16:59.636Z,1.90
2023-01-09T00:19:28.436Z,2.00
2023-01-09T00:21:55.867Z,1.90
2023-01-09T00:24:23.327Z,2.00
2023-01-09T00:26:50.783Z,2.17
2023-01-09T00:29:18.235Z,1.93
2023-01-09T00:31:45.668Z,1.73
2023-01-09T00:34:13.231Z,1.70
2023-01-09T00:36:41.992Z,1.80
2023-01-09T00:39:09.433Z,2.07
2023-01-09T00:41:39.444Z,1.97
2023-01-09T00:44:12.421Z,1.90
2023-01-09T00:46:44.306Z,1.80
2023-01-09T00:49:14.107Z,1.73
2023-01-09T00:51:43.638Z,1.60
2023-01-09T00:54:14.901Z,2.13
2023-01-09T00:56:42.458Z,1.70
2023-01-09T00:59:10.125Z,1.73
2023-01-09T01:01:37.741Z,1.90
2023-01-09T01:04:25.473Z,1.73
2023-01-09T01:07:12.085Z,1.87
2023-01-09T01:09:39.711Z,2.10
2023-01-09T01:12:07.535Z,2.00
2023-01-09T01:14:35.567Z,2.20
2023-01-09T01:17:03.369Z,2.00
2023-01-09T01:19:30.938Z,2.33
2023-01-09T01:21:59.873Z,2.17
2023-01-09T01:24:27.319Z,2.03
2023-01-09T01:26:54.712Z,2.10
2023-01-09T01:29:22.201Z,2.20
2023-01-09T01:31:49.635Z,2.13
2023-01-09T01:34:17.073Z,1.83
2023-01-09T01:36:44.535Z,2.40
2023-01-09T01:39:13.402Z,2.07
2023-01-09T01:41:41.014Z,2.30
2023-01-09T01:44:46.901Z,2.40
2023-01-09T01:47:14.612Z,2.10
2023-01-09T01:49:42.146Z,2.07
2023-01-09T01:52:09.765Z,2.20
2023-01-09T01:54:38.641Z,2.13
2023-01-09T01:57:07.367Z,2.10
2023-01-09T01:59:39.222Z,2.10
2023-01-09T02:02:07.428Z,2.20
2023-01-09T02:04:39.109Z,1.97
2023-01-09T02:07:10.454Z,2.07
2023-01-09T02:09:42.574Z,2.10
2023-01-09T02:12:18.740Z,2.00
2023-01-09T02:14:48.216Z,2.03
2023-01-09T02:17:26.679Z,2.00
2023-01-09T02:20:30.408Z,1.90
2023-01-09T02:23:15.936Z,1.90
2023-01-09T02:26:07.187Z,1.70
2023-01-09T02:28:59.965Z,1.87
2023-01-09T02:31:38.529Z,1.63
2023-01-09T02:34:14.983Z,1.70
2023-01-09T02:36:50.813Z,1.50
2023-01-09T02:39:30.141Z,0.90
2023-01-09T02:42:04.844Z,0.60
2023-01-09T02:44:36.598Z,0.30
2023-01-09T02:47:07.564Z,0.50
2023-01-09T02:49:37.701Z,0.20
2023-01-09T02:52:19.983Z,0.27
2023-01-09T02:54:55.427Z,0.37
2023-01-09T02:57:37.450Z,0.37
2023-01-09T03:00:11.881Z,0.60
2023-01-09T03:02:47.617Z,0.53
2023-01-09T03:05:22.207Z,0.40
2023-01-09T03:07:57.806Z,0.30
2023-01-09T03:10:31.228Z,0.40
2023-01-09T03:13:01.639Z,0.40
2023-01-09T03:15:33.497Z,0.17
2023-01-09T03:18:05.202Z,0.20
2023-01-09T03:20:33.864Z,0.27
2023-01-09T03:23:04.062Z,0.30
2023-01-09T03:25:32.511Z,0.20
2023-01-09T03:28:02.511Z,0.20
2023-01-09T03:30:31.715Z,0.00
2023-01-09T03:32:59.323Z,0.20
2023-01-09T03:35:28.535Z,0.20
2023-01-09T03:37:56.106Z,0.20
2023-01-09T03:40:23.558Z,0.20
2023-01-09T03:42:50.973Z,0.10
2023-01-09T03:45:18.495Z,0.30
2023-01-09T03:47:45.939Z,0.20
2023-01-09T03:50:13.351Z,0.17
2023-01-09T03:52:42.150Z,0.20
2023-01-09T03:55:10.067Z,0.20
2023-01-09T03:57:37.567Z,0.20
2023-01-09T04:00:05.996Z,0.13
2023-01-09T04:02:33.433Z,0.10
2023-01-09T04:05:00.916Z,0.03
2023-01-09T04:07:28.326Z,0.10
2023-01-09T04:09:57.431Z,0.10
2023-01-09T04:12:24.885Z,0.10
2023-01-09T04:14:52.280Z,0.20
2023-01-09T04:17:19.744Z,0.17
2023-01-09T04:19:47.154Z,0.20
2023-01-09T04:22:14.601Z,0.20
2023-01-09T04:24:42.032Z,0.23
2023-01-09T04:27:12.035Z,0.40
2023-01-09T04:29:39.490Z,0.20
2023-01-09T04:32:06.936Z,0.30
2023-01-09T04:34:34.413Z,0.20
2023-01-09T04:37:01.896Z,0.27
2023-01-09T04:39:29.367Z,0.40
2023-01-09T04:41:56.833Z,0.17
2023-01-09T04:44:27.153Z,0.20
2023-01-09T04:46:56.432Z,0.30
2023-01-09T04:49:24.167Z,0.17
2023-01-09T04:51:51.796Z,0.10
2023-01-09T04:54:19.766Z,0.33
2023-01-09T04:56:47.552Z,0.30
2023-01-09T04:59:15.402Z,0.20
2023-01-09T05:01:44.337Z,0.20
2023-01-09T05:04:12.944Z,0.30
2023-01-09T05:06:40.525Z,0.20
2023-01-09T05:09:07.946Z,0.30
2023-01-09T05:11:35.384Z,0.30
2023-01-09T05:14:02.806Z,0.30
2023-01-09T05:16:31.280Z,0.57
2023-01-09T05:19:00.509Z,0.40
2023-01-09T05:21:28.720Z,0.20
2023-01-09T05:23:56.163Z,0.20
2023-01-09T05:26:24.703Z,0.40
2023-01-09T05:28:52.295Z,0.30
2023-01-09T05:31:20.219Z,0.40
2023-01-09T05:33:47.683Z,0.50
2023-01-09T05:36:16.753Z,0.63
2023-01-09T05:38:44.473Z,0.70
2023-01-09T05:41:12.208Z,0.53
2023-01-09T05:43:39.677Z,0.50
2023-01-09T05:46:07.266Z,0.50
2023-01-09T05:48:34.825Z,0.63
2023-01-09T05:51:02.583Z,0.50
2023-01-09T05:53:31.347Z,0.50
2023-01-09T05:55:58.762Z,0.60
2023-01-09T05:58:26.215Z,0.40
2023-01-09T06:00:54.487Z,0.50
2023-01-09T06:03:22.081Z,0.50
2023-01-09T06:05:49.539Z,0.60
2023-01-09T06:08:17.024Z,0.40
2023-01-09T06:10:46.823Z,0.60
2023-01-09T06:13:14.319Z,0.50
2023-01-09T06:15:41.879Z,0.60
2023-01-09T06:18:09.578Z,0.50
2023-01-09T06:20:37.053Z,0.67
2023-01-09T06:23:04.578Z,0.50
2023-01-09T06:25:32.080Z,0.60
2023-01-09T06:28:00.934Z,0.50
2023-01-09T06:30:28.604Z,0.50
2023-01-09T06:32:56.091Z,0.60
2023-01-09T06:35:23.688Z,0.60
2023-01-09T06:37:51.447Z,0.50
2023-01-09T06:40:21.048Z,0.60
2023-01-09T06:42:49.912Z,0.60
2023-01-09T06:45:18.941Z,0.70
2023-01-09T06:47:46.446Z,0.60
2023-01-09T06:50:13.913Z,0.67
2023-01-09T06:52:41.443Z,0.80
2023-01-09T06:55:10.076Z,0.70
2023-01-09T06:57:37.546Z,0.70
2023-01-09T07:00:06.173Z,0.70
2023-01-09T07:02:34.982Z,0.60
2023-01-09T07:05:02.582Z,0.70
2023-01-09T07:07:29.999Z,0.90
2023-01-09T07:09:57.410Z,0.60
2023-01-09T07:12:24.839Z,1.00
2023-01-09T07:14:52.285Z,0.70
2023-01-09T07:17:19.735Z,0.80
2023-01-09T07:19:48.544Z,0.80
2023-01-09T07:22:18.618Z,0.80
2023-01-09T07:24:46.470Z,0.80
2023-01-09T07:27:14.283Z,0.80
2023-01-09T07:29:41.766Z,0.80
2023-01-09T07:32:09.302Z,0.80
2023-01-09T07:34:36.796Z,1.00
2023-01-09T07:37:05.749Z,0.80
2023-01-09T07:39:33.232Z,0.90
2023-01-09T07:42:00.723Z,0.93
2023-01-09T07:44:28.255Z,0.90
2023-01-09T07:46:56.009Z,0.90
2023-01-09T07:49:25.356Z,0.90
2023-01-09T07:51:54.123Z,0.90
2023-01-09T07:54:23.134Z,0.90
2023-01-09T07:56:50.605Z,0.80
2023-01-09T07:59:18.285Z,0.80
2023-01-09T08:01:45.840Z,1.07
2023-01-09T08:04:13.377Z,0.80
2023-01-09T08:06:40.825Z,1.00
2023-01-09T08:09:09.206Z,1.00
2023-01-09T08:11:38.040Z,0.90
2023-01-09T08:14:05.570Z,0.93
2023-01-09T08:16:33.024Z,1.00
2023-01-09T08:19:00.577Z,1.00
2023-01-09T08:21:28.020Z,1.00
2023-01-09T08:23:55.513Z,1.13
2023-01-09T08:26:23.115Z,1.23
2023-01-09T08:28:51.931Z,1.07
2023-01-09T08:31:19.583Z,1.00
2023-01-09T08:33:47.037Z,1.03
2023-01-09T08:36:14.583Z,1.00
2023-01-09T08:38:42.087Z,0.90
2023-01-09T08:41:23.537Z,1.10
2023-01-09T08:44:10.411Z,1.10
2023-01-09T08:46:55.604Z,1.00
2023-01-09T08:49:23.033Z,1.03
2023-01-09T08:51:50.460Z,1.00
2023-01-09T08:54:17.926Z,0.90
2023-01-09T08:56:45.384Z,0.90
2023-01-09T08:59:14.486Z,1.40
2023-01-09T09:01:42.105Z,0.90
2023-01-09T09:04:09.540Z,0.90
2023-01-09T09:06:37.031Z,1.10
2023-01-09T09:09:06.397Z,0.97
2023-01-09T09:11:34.486Z,0.93
2023-01-09T09:14:23.417Z,1.00
2023-01-09T09:16:53.715Z,0.87
2023-01-09T09:19:21.400Z,0.90
2023-01-09T09:21:48.828Z,0.90
2023-01-09T09:24:16.353Z,0.67
2023-01-09T09:26:44.667Z,0.77
2023-01-09T09:29:12.985Z,0.93
2023-01-09T09:31:40.472Z,0.87
2023-01-09T09:34:10.469Z,0.60
2023-01-09T09:36:37.927Z,1.00
2023-01-09T09:39:07.232Z,1.07
2023-01-09T09:42:05.733Z,1.20
2023-01-09T09:44:58.683Z,0.90
2023-01-09T09:47:45.687Z,0.80
2023-01-09T09:50:27.246Z,0.90
2023-01-09T09:53:00.499Z,0.87
2023-01-09T09:55:32.320Z,0.90
2023-01-09T09:58:01.960Z,0.93
2023-01-09T10:00:30.018Z,0.90
2023-01-09T10:03:02.839Z,0.90
2023-01-09T10:05:35.318Z,0.73
2023-01-09T10:08:15.429Z,0.83
2023-01-09T10:10:47.815Z,0.70
2023-01-09T10:13:36.648Z,0.80
2023-01-09T10:16:12.689Z,0.70
2023-01-09T10:18:51.105Z,0.80
2023-01-09T10:21:24.414Z,0.90
2023-01-09T10:24:07.282Z,0.90
2023-01-09T10:26:41.668Z,0.70
2023-01-09T10:29:51.083Z,1.10
2023-01-09T10:32:48.702Z,0.80
2023-01-09T10:35:47.032Z,0.77
2023-01-09T10:38:20.863Z,0.70
2023-01-09T10:40:54.063Z,0.70
2023-01-09T10:43:30.180Z,0.70
2023-01-09T10:46:01.358Z,0.97
2023-01-09T10:48:33.582Z,0.80
2023-01-09T10:51:01.169Z,0.70
2023-01-09T10:53:33.920Z,0.90
2023-01-09T10:56:06.092Z,0.90
2023-01-09T10:58:33.691Z,0.73
2023-01-09T11:01:01.401Z,0.60
2023-01-09T11:03:29.791Z,0.70
2023-01-09T11:05:59.482Z,0.70
2023-01-09T11:08:32.465Z,0.80
2023-01-09T11:11:02.182Z,0.67
2023-01-09T11:13:31.819Z,0.63
2023-01-09T11:16:01.512Z,0.70
2023-01-09T11:18:29.356Z,0.77
2023-01-09T11:20:56.908Z,0.90
2023-01-09T11:23:32.299Z,0.73
2023-01-09T11:26:02.026Z,0.80
2023-01-09T11:28:30.229Z,0.67
2023-01-09T11:31:03.487Z,0.93
2023-01-09T11:33:34.518Z,0.80
2023-01-09T11:36:05.867Z,0.60
2023-01-09T11:38:51.856Z,0.60
2023-01-09T11:41:21.829Z,0.70
2023-01-09T11:43:51.735Z,0.70
2023-01-09T11:46:34.631Z,0.90
2023-01-09T11:49:03.212Z,0.90
2023-01-09T11:51:34.113Z,0.80
2023-01-09T11:54:26.877Z,0.60
2023-01-09T11:56:55.540Z,0.70
2023-01-09T11:59:26.360Z,0.80
2023-01-09T12:02:26.321Z,0.60
2023-01-09T12:04:57.104Z,1.00
2023-01-09T12:07:55.663Z,0.70
2023-01-09T12:10:41.768Z,0.73
2023-01-09T12:13:22.445Z,0.93
2023-01-09T12:16:02.496Z,0.77
2023-01-09T12:18:41.404Z,0.80
2023-01-09T12:21:21.970Z,0.73
2023-01-09T12:24:03.508Z,0.70
2023-01-09T12:26:34.982Z,0.80
2023-01-09T12:29:18.601Z,0.73
2023-01-09T12:32:00.295Z,0.93
2023-01-09T12:34:45.635Z,0.80
2023-01-09T12:37:27.615Z,0.60
2023-01-09T12:40:04.010Z,0.67
2023-01-09T12:42:48.931Z,0.77
2023-01-09T12:45:42.629Z,0.87
2023-01-09T12:48:25.998Z,0.60
2023-01-09T12:51:11.871Z,0.47
2023-01-09T12:53:43.576Z,0.70
2023-01-09T12:56:15.874Z,0.90
2023-01-09T12:58:50.853Z,0.80
2023-01-09T13:01:25.410Z,0.70
2023-01-09T13:04:00.425Z,0.97
2023-01-09T13:06:30.039Z,0.67
2023-01-09T13:09:18.310Z,0.80
2023-01-09T13:11:50.906Z,1.03
2023-01-09T13:14:26.387Z,0.80
2023-01-09T13:16:57.948Z,1.00
2023-01-09T13:19:30.706Z,0.70
2023-01-09T13:21:59.489Z,0.77
2023-01-09T13:24:34.624Z,0.83
2023-01-09T13:27:06.658Z,0.70
2023-01-09T13:29:38.419Z,0.80
2023-01-09T13:32:30.731Z,0.80
2023-01-09T13:34:58.725Z,0.80
2023-01-09T13:37:29.671Z,1.00
2023-01-09T13:39:59.361Z,0.80
2023-01-09T13:42:44.128Z,0.90
2023-01-09T13:45:24.600Z,0.80
2023-01-09T13:48:25.060Z,0.87
2023-01-09T13:50:55.643Z,0.90
2023-01-09T13:53:46.014Z,0.80
2023-01-09T13:56:14.153Z,1.00
2023-01-09T13:59:09.688Z,0.70
2023-01-09T14:01:43.483Z,1.00
2023-01-09T14:04:41.752Z,0.97
2023-01-09T14:07:20.532Z,1.00
2023-01-09T14:09:52.308Z,0.90
2023-01-09T14:12:21.905Z,0.90
2023-01-09T14:14:51.312Z,0.80
2023-01-09T14:17:28.319Z,0.80
2023-01-09T14:19:59.127Z,0.90
2023-01-09T14:22:29.062Z,0.77
2023-01-09T14:25:03.196Z,0.90
2023-01-09T14:28:06.645Z,0.90
2023-01-09T14:30:36.395Z,0.60
2023-01-09T14:33:26.033Z,0.83
2023-01-09T14:36:00.992Z,1.10
2023-01-09T14:38:32.257Z,0.80
2023-01-09T14:41:07.681Z,0.73
2023-01-09T14:43:53.484Z,0.67
2023-01-09T14:46:23.150Z,0.70
2023-01-09T14:49:01.492Z,0.80
2023-01-09T14:51:32.156Z,0.70
2023-01-09T14:54:01.377Z,0.60
2023-01-09T14:56:31.365Z,0.60
2023-01-09T14:59:06.552Z,0.80
2023-01-09T15:01:36.836Z,0.70
2023-01-09T15:04:12.936Z,0.77
2023-01-09T15:06:43.764Z,0.57
2023-01-09T15:09:28.994Z,0.60
2023-01-09T15:12:03.288Z,0.90
2023-01-09T15:14:34.043Z,0.80
2023-01-09T15:17:02.942Z,0.70
2023-01-09T15:19:32.981Z,0.70
2023-01-09T15:22:02.633Z,0.70
2023-01-09T15:24:32.392Z,0.77
2023-01-09T15:27:01.934Z,0.70
2023-01-09T15:29:29.670Z,0.70
2023-01-09T15:32:02.879Z,0.80
2023-01-09T15:34:30.557Z,0.80
2023-01-09T15:36:59.365Z,0.73
2023-01-09T15:39:31.317Z,0.70
2023-01-09T15:42:29.231Z,0.80
2023-01-09T15:44:56.761Z,0.70
2023-01-09T15:47:27.596Z,0.80
2023-01-09T15:49:56.436Z,0.80
2023-01-09T15:52:25.414Z,0.90
2023-01-09T15:54:53.040Z,0.83
2023-01-09T15:57:33.968Z,1.00
2023-01-09T16:00:24.557Z,0.90
2023-01-09T16:03:09.563Z,0.73
2023-01-09T16:05:40.857Z,0.70
2023-01-09T16:08:21.656Z,0.80
2023-01-09T16:10:54.119Z,0.70
2023-01-09T16:13:27.801Z,0.70
2023-01-09T16:15:56.306Z,0.80
2023-01-09T16:18:29.860Z,0.80
2023-01-09T16:21:22.604Z,0.83
2023-01-09T16:23:59.474Z,1.00
2023-01-09T16:26:28.685Z,0.90
2023-01-09T16:28:56.851Z,0.80
2023-01-09T16:31:28.477Z,0.30
2023-01-09T16:33:59.416Z,0.43
2023-01-09T16:36:28.488Z,0.40
2023-01-09T16:39:00.705Z,0.50
2023-01-09T16:41:46.203Z,0.70
2023-01-09T16:44:13.703Z,0.60
2023-01-09T16:46:43.983Z,0.43
2023-01-09T16:49:20.125Z,0.30
2023-01-09T16:51:48.035Z,0.27
2023-01-09T16:54:17.753Z,0.40
2023-01-09T16:56:48.340Z,0.20
2023-01-09T16:59:20.431Z,0.47
2023-01-09T17:01:48.421Z,0.40
2023-01-09T17:04:17.584Z,0.50
2023-01-09T17:06:45.604Z,0.17
2023-01-09T17:09:14.908Z,0.30
2023-01-09T17:11:44.114Z,0.20
2023-01-09T17:14:13.204Z,0.40
2023-01-09T17:16:43.280Z,0.40
2023-01-09T17:19:16.960Z,0.40
2023-01-09T17:21:44.424Z,0.40
2023-01-09T17:24:30.099Z,0.50
2023-01-09T17:27:17.137Z,0.40
2023-01-09T17:29:45.269Z,0.40
2023-01-09T17:32:15.786Z,0.50
2023-01-09T17:34:43.453Z,0.40
2023-01-09T17:37:15.558Z,0.40
2023-01-09T17:39:43.167Z,0.43
2023-01-09T17:42:12.075Z,0.40
2023-01-09T17:44:39.524Z,0.60
2023-01-09T17:47:07.098Z,0.50
2023-01-09T17:49:34.618Z,0.70
2023-01-09T17:52:02.036Z,0.70
2023-01-09T17:54:30.211Z,0.70
2023-01-09T17:56:59.171Z,0.90
2023-01-09T17:59:30.125Z,0.77
2023-01-09T18:01:57.687Z,0.80
2023-01-09T18:04:25.155Z,0.80
2023-01-09T18:06:54.408Z,0.80
2023-01-09T18:09:21.823Z,0.90
2023-01-09T18:11:49.264Z,0.80
2023-01-09T18:14:17.439Z,0.90
2023-01-09T18:16:46.308Z,0.70
2023-01-09T18:19:13.809Z,0.67
2023-01-09T18:21:41.266Z,0.90
2023-01-09T18:24:09.908Z,0.97
2023-01-09T18:26:37.416Z,0.80
2023-01-09T18:29:05.076Z,0.70
2023-01-09T18:31:33.337Z,0.57
2023-01-09T18:34:05.224Z,0.70
2023-01-09T18:36:33.625Z,0.70
2023-01-09T18:39:03.052Z,0.50
2023-01-09T18:41:31.780Z,0.70
2023-01-09T18:44:01.007Z,0.50
2023-01-09T18:46:31.789Z,0.80
2023-01-09T18:49:01.226Z,0.70
2023-01-09T18:51:30.231Z,0.70
2023-01-09T18:53:58.597Z,0.70
2023-01-09T18:56:26.176Z,0.70
2023-01-09T18:58:56.032Z,0.60
2023-01-09T19:01:23.930Z,0.70
2023-01-09T19:03:51.514Z,0.87
2023-01-09T19:06:19.179Z,0.50
2023-01-09T19:08:48.013Z,0.70
2023-01-09T19:11:15.498Z,0.77
2023-01-09T19:13:43.007Z,0.80
2023-01-09T19:16:11.342Z,0.80
2023-01-09T19:18:40.915Z,0.70
2023-01-09T19:21:13.627Z,0.80
2023-01-09T19:23:42.514Z,1.10
2023-01-09T19:26:17.328Z,0.77
2023-01-09T19:28:46.614Z,0.60
2023-01-09T19:31:14.748Z,0.70
2023-01-09T19:33:42.445Z,0.70
2023-01-09T19:36:10.272Z,0.80
2023-01-09T19:38:38.278Z,0.80
2023-01-09T19:41:12.874Z,0.83
2023-01-09T19:43:41.796Z,0.90
2023-01-09T19:46:10.700Z,0.70
2023-01-09T19:48:38.656Z,0.60
2023-01-09T19:51:08.814Z,0.70
2023-01-09T19:53:37.216Z,0.60
2023-01-09T19:56:12.637Z,0.90
2023-01-09T19:58:42.365Z,0.60
2023-01-09T20:01:11.994Z,0.77
2023-01-09T20:03:41.306Z,0.83
2023-01-09T20:06:13.882Z,0.80
2023-01-09T20:08:41.397Z,0.70
2023-01-09T20:11:09.044Z,0.70
2023-01-09T20:13:36.517Z,0.80
2023-01-09T20:16:06.329Z,0.90
2023-01-09T20:18:35.536Z,1.00
2023-01-09T20:21:03.475Z,1.00
2023-01-09T20:23:32.362Z,0.90
2023-01-09T20:26:00.713Z,1.00
2023-01-09T20:28:28.937Z,1.00
2023-01-09T20:30:56.465Z,0.90
2023-01-09T20:33:25.407Z,1.10
2023-01-09T20:35:52.892Z,0.93
2023-01-09T20:38:20.390Z,1.07
2023-01-09T20:40:47.848Z,1.00
2023-01-09T20:43:15.282Z,0.83
2023-01-09T20:45:42.782Z,1.20
2023-01-09T20:48:14.420Z,0.97
2023-01-09T20:50:43.256Z,1.10
2023-01-09T20:53:10.666Z,1.20
2023-01-09T20:55:38.126Z,1.10
2023-01-09T20:58:05.538Z,1.27
2023-01-09T21:00:32.971Z,0.90
2023-01-09T21:03:00.457Z,1.00
2023-01-09T21:05:27.983Z,1.00
2023-01-09T21:07:56.858Z,1.03
2023-01-09T21:10:24.361Z,1.00
2023-01-09T21:12:51.811Z,1.27
2023-01-09T21:15:21.311Z,1.00
2023-01-09T21:17:48.827Z,1.00
2023-01-09T21:20:16.555Z,1.03
2023-01-09T21:22:44.060Z,1.03
2023-01-09T21:25:12.808Z,1.00
2023-01-09T21:27:42.341Z,1.00
2023-01-09T21:30:11.213Z,1.03
2023-01-09T21:32:39.140Z,1.20
2023-01-09T21:35:07.376Z,1.17
2023-01-09T21:37:37.391Z,1.10
2023-01-09T21:40:08.323Z,1.20
2023-01-09T21:42:54.859Z,1.00
2023-01-09T21:45:40.178Z,1.10
2023-01-09T21:48:08.030Z,1.30
2023-01-09T21:50:35.760Z,1.40
2023-01-09T21:53:03.441Z,1.20
2023-01-09T21:55:31.953Z,1.40
2023-01-09T21:58:01.679Z,1.30
2023-01-09T22:00:29.875Z,1.37
2023-01-09T22:02:57.824Z,1.03
2023-01-09T22:05:27.241Z,1.40
2023-01-09T22:07:55.781Z,1.30
2023-01-09T22:10:23.355Z,1.30
2023-01-09T22:13:09.222Z,1.20
2023-01-09T22:15:38.060Z,1.30
2023-01-09T22:18:05.711Z,1.30
2023-01-09T22:20:33.172Z,1.20
2023-01-09T22:23:01.095Z,1.20
2023-01-09T22:25:28.569Z,1.20
2023-01-09T22:27:56.155Z,1.30
2023-01-09T22:30:23.629Z,1.30
2023-01-09T22:32:52.385Z,1.10
2023-01-09T22:35:19.866Z,1.30
2023-01-09T22:37:47.312Z,1.27
2023-01-09T22:40:15.080Z,1.30
2023-01-09T22:42:42.557Z,1.17
2023-01-09T22:45:10.669Z,1.10
2023-01-09T22:47:38.070Z,1.30
2023-01-09T22:50:08.547Z,1.27
2023-01-09T22:52:36.027Z,1.30
2023-01-09T22:55:03.593Z,1.20
2023-01-09T22:57:31.012Z,1.10
2023-01-09T22:59:58.436Z,1.10
2023-01-09T23:02:26.031Z,1.10
2023-01-09T23:04:54.309Z,1.00
2023-01-09T23:07:23.078Z,1.00
2023-01-09T23:09:50.560Z,1.10
2023-01-09T23:12:18.062Z,1.10
2023-01-09T23:14:45.982Z,1.20
2023-01-09T23:17:13.534Z,1.10
2023-01-09T23:19:40.937Z,1.10
2023-01-09T23:22:08.726Z,1.20
2023-01-09T23:24:37.612Z,1.20
2023-01-09T23:27:05.339Z,1.00
2023-01-09T23:29:32.807Z,1.10
2023-01-09T23:32:00.347Z,1.00
2023-01-09T23:34:28.060Z,1.10
2023-01-09T23:36:57.458Z,1.10
2023-01-09T23:39:25.215Z,1.00
2023-01-09T23:42:11.434Z,1.00
2023-01-09T23:44:39.061Z,1.00
2023-01-09T23:47:06.522Z,1.00
2023-01-09T23:49:34.111Z,1.27
2023-01-09T23:52:05.839Z,1.10
2023-01-09T23:54:33.299Z,1.30
2023-01-09T23:57:02.175Z,1.00
2023-01-09T23:59:29.628Z,1.10
